Elliston, Ohio
Current Conditions -  °F | °C
As of 9:53 AM on Tuesday 21 Oct 2014 (Local Time) from KTDZ Reporting Station
Overcast Overcast  
Wind Chill: 45°   Ceiling: 1300
Heat Index: 49°   Visibility: 10mi
Dew Point: 44°   Wind: 10mph
Humidity: 83%   Direction: 320°NW
Pressure: 30"   Gusts: NA
Location:  41.5616°N, 83.2479°W
Report Text: KTDZ 211353Z AUTO 32009KT 10SM OVC013 09/07 A3000 RMK AO2 SLP159 T00940067 TSNO
Loading
Personal Weather Stations






























Interactive Weather Map
Tropical Storm Tracking
New forecast layout! Learn more

10-Day Weather Forecast

Advertisements
Track Severe Weather on mobile